Time;durP1;ratioP1;P1;durP2;ratioP2;P2;SDS_P1;SDS_P2;PMS_P1;PMS_P2;Temp;Humidity;BMP_temperature;BMP_pressure;BME280_temperature;BME280_humidity;BME280_pressure;Samples;Min_cycle;Max_cycle;Signal;HPM_P1;HPM_P2
2021/03/25 00:00:13;;;;;;;34.38;12.02;;;4.70;99.90;;;;;;4989955;28;20038;-75
2021/03/25 00:02:39;;;;;;;27.88;11.75;;;4.70;99.90;;;;;;4989691;28;20426;-76
2021/03/25 00:05:07;;;;;;;29.55;11.98;;;4.70;99.90;;;;;;4989033;28;20039;-75
2021/03/25 00:07:32;;;;;;;30.15;12.05;;;4.70;99.90;;;;;;4989287;28;20514;-75
2021/03/25 00:09:59;;;;;;;31.80;11.38;;;4.60;99.90;;;;;;4990582;28;20046;-76
2021/03/25 00:12:24;;;;;;;27.00;11.70;;;4.60;99.90;;;;;;4991988;28;20034;-74
2021/03/25 00:14:50;;;;;;;32.72;11.05;;;4.60;99.90;;;;;;4991938;28;20557;-74
2021/03/25 00:17:15;;;;;;;31.00;11.70;;;4.60;99.90;;;;;;4994805;28;20132;-74
2021/03/25 00:19:41;;;;;;;27.48;11.38;;;4.60;99.90;;;;;;4992527;28;20050;-75
2021/03/25 00:22:07;;;;;;;25.90;10.98;;;4.50;99.90;;;;;;4995574;28;20026;-76
2021/03/25 00:24:33;;;;;;;27.90;12.02;;;4.50;99.90;;;;;;4995906;28;20042;-75
2021/03/25 00:26:59;;;;;;;21.95;11.13;;;4.60;99.90;;;;;;4994375;28;20762;-75
2021/03/25 00:29:24;;;;;;;25.88;11.25;;;4.60;99.90;;;;;;4992280;28;20038;-74
2021/03/25 00:31:50;;;;;;;24.02;10.88;;;4.50;99.90;;;;;;4993899;28;20034;-74
2021/03/25 00:34:16;;;;;;;31.48;12.10;;;4.50;99.90;;;;;;5002065;28;20038;-77
2021/03/25 00:36:41;;;;;;;36.05;11.88;;;4.50;99.90;;;;;;4989992;28;20034;-76
2021/03/25 00:39:09;;;;;;;32.78;12.35;;;4.50;99.90;;;;;;4986359;28;20125;-74
2021/03/25 00:41:35;;;;;;;36.33;11.43;;;4.50;99.90;;;;;;4990857;28;20053;-76
2021/03/25 00:44:04;;;;;;;27.33;10.88;;;4.40;99.90;;;;;;4984042;28;20049;-76
2021/03/25 00:46:29;;;;;;;27.52;11.75;;;4.40;99.90;;;;;;4990511;28;20026;-75
2021/03/25 00:48:55;;;;;;;28.08;10.73;;;4.40;99.90;;;;;;4988282;28;20034;-74
2021/03/25 00:51:20;;;;;;;27.25;11.25;;;4.40;99.90;;;;;;4964965;28;20124;-74
2021/03/25 00:53:46;;;;;;;31.15;11.60;;;4.30;99.90;;;;;;4994260;28;20045;-75
2021/03/25 00:56:11;;;;;;;29.08;12.43;;;4.40;99.90;;;;;;4990841;28;20057;-74
2021/03/25 00:58:37;;;;;;;35.30;12.32;;;4.30;99.90;;;;;;4990393;28;20436;-75
2021/03/25 01:01:04;;;;;;;32.58;12.45;;;4.20;99.90;;;;;;4982631;28;20077;-75
2021/03/25 01:03:30;;;;;;;26.30;11.40;;;4.20;99.90;;;;;;4951049;28;20026;-75
2021/03/25 01:05:56;;;;;;;27.02;11.85;;;4.30;99.90;;;;;;4956662;28;20147;-76
2021/03/25 01:08:22;;;;;;;31.10;11.98;;;4.30;99.90;;;;;;4962471;28;20128;-76
2021/03/25 01:10:51;;;;;;;35.53;11.70;;;4.20;99.90;;;;;;4982075;28;20046;-74
2021/03/25 01:13:23;;;;;;;29.35;11.57;;;4.20;99.90;;;;;;4978884;28;20046;-74
2021/03/25 01:15:49;;;;;;;32.15;12.18;;;4.20;99.90;;;;;;4928491;28;20085;-75
2021/03/25 01:18:15;;;;;;;29.15;11.05;;;4.10;99.90;;;;;;4974941;28;20523;-75
2021/03/25 01:20:42;;;;;;;32.78;11.82;;;4.10;99.90;;;;;;4946757;28;20124;-75
2021/03/25 01:23:09;;;;;;;29.33;10.70;;;4.10;99.90;;;;;;4974192;28;20042;-75
2021/03/25 01:25:36;;;;;;;30.00;12.20;;;4.00;99.90;;;;;;4980010;28;20042;-74
2021/03/25 01:28:05;;;;;;;32.40;12.30;;;4.10;99.90;;;;;;4976275;28;20505;-75
2021/03/25 01:30:32;;;;;;;24.52;10.93;;;4.10;99.90;;;;;;4950449;28;20034;-75
2021/03/25 01:32:59;;;;;;;28.60;11.75;;;4.10;99.90;;;;;;4999477;28;20352;-74
2021/03/25 01:35:26;;;;;;;27.63;11.50;;;4.00;99.90;;;;;;4972444;28;20054;-75
2021/03/25 01:37:52;;;;;;;29.10;12.00;;;4.00;99.90;;;;;;4972081;28;20041;-75
2021/03/25 01:40:25;;;;;;;35.38;11.75;;;3.90;99.90;;;;;;4979084;28;20030;-75
2021/03/25 01:43:06;;;;;;;23.35;10.82;;;4.00;99.90;;;;;;4994099;28;20058;-75
2021/03/25 01:45:37;;;;;;;28.65;12.48;;;3.90;99.90;;;;;;4998774;28;20372;-75
2021/03/25 01:48:04;;;;;;;26.15;11.52;;;3.90;99.90;;;;;;4974889;28;20041;-75
2021/03/25 01:50:29;;;;;;;30.48;11.57;;;3.90;99.90;;;;;;4999216;28;20599;-75
2021/03/25 01:53:26;;;;;;;26.75;10.90;;;3.90;99.90;;;;;;4973546;28;20046;-75
2021/03/25 01:56:26;;;;;;;28.08;11.77;;;3.90;99.90;;;;;;4995068;28;20034;-74
2021/03/25 01:59:37;;;;;;;32.58;11.55;;;3.80;99.90;;;;;;4994351;28;20038;-75
2021/03/25 02:02:27;;;;;;;36.63;11.77;;;3.80;99.90;;;;;;4993232;28;20026;-73
2021/03/25 02:05:16;;;;;;;29.92;10.93;;;3.80;99.90;;;;;;4975475;28;20139;-74
2021/03/25 02:07:51;;;;;;;28.48;10.63;;;3.80;99.90;;;;;;4999611;28;20057;-75
2021/03/25 02:10:35;;;;;;;28.10;12.18;;;3.80;99.90;;;;;;4996938;28;20037;-75
2021/03/25 02:13:11;;;;;;;27.63;11.15;;;3.80;99.90;;;;;;4995910;28;20019;-74
2021/03/25 02:15:53;;;;;;;27.88;11.73;;;3.70;99.90;;;;;;4999493;28;20092;-75
2021/03/25 02:18:33;;;;;;;29.80;11.43;;;3.70;99.90;;;;;;4972267;28;20042;-75
2021/03/25 02:21:17;;;;;;;33.15;11.65;;;3.60;99.90;;;;;;4942658;28;20138;-75
2021/03/25 02:23:56;;;;;;;32.83;12.43;;;3.70;99.90;;;;;;4972265;28;20061;-75
2021/03/25 02:26:35;;;;;;;38.50;11.95;;;3.60;99.90;;;;;;4985971;28;20022;-75
2021/03/25 02:29:43;;;;;;;29.95;12.30;;;3.60;99.90;;;;;;4952586;28;20085;-75
2021/03/25 02:32:23;;;;;;;28.83;12.02;;;3.60;99.90;;;;;;4999532;28;20403;-74
2021/03/25 02:34:51;;;;;;;39.67;12.80;;;3.60;99.90;;;;;;4983493;28;20270;-74
2021/03/25 02:37:29;;;;;;;34.30;11.85;;;3.50;99.90;;;;;;4969866;28;20038;-75
2021/03/25 02:40:17;;;;;;;32.90;12.95;;;3.50;99.90;;;;;;4997176;28;20036;-75
2021/03/25 02:42:52;;;;;;;25.00;11.05;;;3.50;99.90;;;;;;4971422;28;20050;-74
2021/03/25 02:45:28;;;;;;;27.00;11.35;;;3.40;99.90;;;;;;4977757;28;20042;-75
2021/03/25 02:48:05;;;;;;;35.90;11.98;;;3.40;99.90;;;;;;4993834;28;20026;-76
2021/03/25 02:50:43;;;;;;;32.67;11.02;;;3.40;99.90;;;;;;4972132;28;20034;-76
2021/03/25 02:53:25;;;;;;;24.27;11.60;;;3.40;99.90;;;;;;4972380;28;20832;-76
2021/03/25 02:55:56;;;;;;;24.52;11.00;;;3.40;99.90;;;;;;5000481;28;20117;-75
2021/03/25 02:58:25;;;;;;;28.40;11.27;;;3.50;99.90;;;;;;4975793;28;20038;-76
2021/03/25 03:01:03;;;;;;;30.50;11.68;;;3.40;99.90;;;;;;4999964;28;20026;-75
2021/03/25 03:03:34;;;;;;;28.50;11.40;;;3.40;99.90;;;;;;4978663;28;20053;-75
2021/03/25 03:06:02;;;;;;;27.05;11.40;;;3.40;99.90;;;;;;4956748;28;20381;-75
2021/03/25 03:08:38;;;;;;;24.85;11.38;;;3.40;99.90;;;;;;4960951;28;20037;-75
2021/03/25 03:11:29;;;;;;;28.65;11.20;;;3.40;99.90;;;;;;4953769;28;20166;-74
2021/03/25 03:14:00;;;;;;;28.80;11.82;;;3.40;99.90;;;;;;4961289;28;20042;-75
2021/03/25 03:16:33;;;;;;;28.85;12.10;;;3.40;99.90;;;;;;4971271;28;20134;-75
2021/03/25 03:19:08;;;;;;;30.83;11.57;;;3.40;99.90;;;;;;4976039;28;20077;-75
2021/03/25 03:21:46;;;;;;;29.02;11.73;;;3.40;99.90;;;;;;4949839;28;20050;-75
2021/03/25 03:24:13;;;;;;;37.10;12.02;;;3.40;99.90;;;;;;4942303;28;20034;-75
2021/03/25 03:26:48;;;;;;;28.17;11.68;;;3.30;99.90;;;;;;4951911;28;20579;-74
2021/03/25 03:29:15;;;;;;;31.33;11.45;;;3.30;99.90;;;;;;4948375;28;20068;-74
2021/03/25 03:31:46;;;;;;;23.90;10.68;;;3.30;99.90;;;;;;4950144;28;20184;-75
2021/03/25 03:34:22;;;;;;;28.73;11.95;;;3.30;99.90;;;;;;4952286;28;20394;-75
2021/03/25 03:36:50;;;;;;;29.27;11.63;;;3.30;99.90;;;;;;4946475;28;20791;-75
2021/03/25 03:39:21;;;;;;;23.30;10.15;;;3.30;99.90;;;;;;4976901;28;20129;-75
2021/03/25 03:41:58;;;;;;;30.48;11.52;;;3.30;99.90;;;;;;4972261;28;20065;-74
2021/03/25 03:44:35;;;;;;;28.85;11.73;;;3.30;99.90;;;;;;4946167;28;20462;-75
2021/03/25 03:47:03;;;;;;;31.42;11.25;;;3.20;99.90;;;;;;4973574;28;20069;-75
2021/03/25 03:49:49;;;;;;;35.70;12.00;;;3.20;99.90;;;;;;4945736;28;20049;-75
2021/03/25 03:52:25;;;;;;;23.98;10.77;;;3.20;99.90;;;;;;4923028;28;20050;-74
2021/03/25 03:54:53;;;;;;;26.42;11.98;;;3.20;99.90;;;;;;4976770;28;20125;-74
2021/03/25 03:57:44;;;;;;;28.38;10.85;;;3.10;99.90;;;;;;4949852;28;20038;-74
2021/03/25 04:00:29;;;;;;;25.85;10.93;;;3.10;99.90;;;;;;4963675;28;20042;-74
2021/03/25 04:02:55;;;;;;;;;;;3.10;99.90;;;;;;4981387;28;20041;-74
2021/03/25 04:05:40;;;;;;;28.80;10.13;;;3.10;99.90;;;;;;5014492;28;20476;-74
2021/03/25 04:08:14;;;;;;;25.05;10.32;;;3.10;99.90;;;;;;4971179;28;20114;-75
2021/03/25 04:10:45;;;;;;;;;;;3.10;99.90;;;;;;5001268;28;20045;-73
2021/03/25 04:13:15;;;;;;;28.48;11.13;;;3.10;99.90;;;;;;5000756;28;19910;-75
2021/03/25 04:15:48;;;;;;;26.73;11.07;;;3.10;99.90;;;;;;4970119;28;20402;-75
2021/03/25 04:18:23;;;;;;;25.90;11.13;;;3.10;99.90;;;;;;4976033;28;20053;-74
2021/03/25 04:20:55;;;;;;;21.27;10.68;;;3.10;99.90;;;;;;4979473;28;20056;-75
2021/03/25 04:23:23;;;;;;;24.08;10.98;;;3.00;99.90;;;;;;4959130;28;20155;-73
2021/03/25 04:25:57;;;;;;;23.83;10.70;;;3.00;99.90;;;;;;4971541;28;20073;-75
2021/03/25 04:28:42;;;;;;;26.73;11.18;;;3.00;99.90;;;;;;4951364;28;20041;-75
2021/03/25 04:31:08;;;;;;;25.95;10.23;;;3.00;99.90;;;;;;4919345;28;22258;-75
2021/03/25 04:33:37;;;;;;;25.30;10.65;;;3.00;99.90;;;;;;4941559;28;20038;-75
2021/03/25 04:36:06;;;;;;;30.83;11.27;;;2.90;99.90;;;;;;4929846;28;20124;-75
2021/03/25 04:38:35;;;;;;;22.45;9.77;;;3.00;99.90;;;;;;4933234;28;20046;-76
2021/03/25 04:41:01;;;;;;;25.45;9.95;;;2.90;99.90;;;;;;4926664;28;20142;-76
2021/03/25 04:43:28;;;;;;;26.95;10.35;;;2.90;99.90;;;;;;4921484;28;20109;-76
2021/03/25 04:46:07;;;;;;;29.52;11.13;;;2.90;99.90;;;;;;4933679;28;20035;-76
2021/03/25 04:48:39;;;;;;;30.15;10.85;;;2.90;99.90;;;;;;4932064;28;20060;-76
2021/03/25 04:51:15;;;;;;;24.38;10.70;;;2.90;99.90;;;;;;4928526;28;20049;-74
2021/03/25 04:53:42;;;;;;;21.65;10.65;;;2.80;99.90;;;;;;4934093;28;20037;-74
2021/03/25 04:56:17;;;;;;;24.30;10.07;;;2.90;99.90;;;;;;4927780;28;20086;-76
2021/03/25 04:58:56;;;;;;;23.48;9.57;;;2.80;99.90;;;;;;4931694;28;20097;-76
2021/03/25 05:01:28;;;;;;;24.85;10.10;;;2.80;99.90;;;;;;4900111;28;20104;-76
2021/03/25 05:04:03;;;;;;;26.10;11.25;;;2.80;99.90;;;;;;4941270;28;20034;-76
2021/03/25 05:06:51;;;;;;;23.60;9.82;;;2.70;99.90;;;;;;4941514;28;20042;-76
2021/03/25 05:09:19;;;;;;;25.48;10.65;;;2.70;99.90;;;;;;4932754;28;20038;-75
2021/03/25 05:11:46;;;;;;;23.90;10.07;;;2.70;99.90;;;;;;4942248;28;20038;-76
2021/03/25 05:14:18;;;;;;;29.95;10.45;;;2.80;99.90;;;;;;4946431;28;20042;-76
2021/03/25 05:16:54;;;;;;;23.67;8.45;;;2.80;99.90;;;;;;4948660;28;20561;-75
2021/03/25 05:19:38;;;;;;;22.23;9.90;;;2.80;99.90;;;;;;4971676;28;20105;-75
2021/03/25 05:22:26;;;;;;;24.75;9.75;;;2.80;99.90;;;;;;4975768;28;20056;-75
2021/03/25 05:25:24;;;;;;;27.33;9.07;;;2.80;99.90;;;;;;4951128;28;20136;-75
2021/03/25 05:27:55;;;;;;;25.55;9.95;;;2.70;99.90;;;;;;4999811;28;20029;-76
2021/03/25 05:30:29;;;;;;;23.50;9.82;;;2.80;99.90;;;;;;4999189;28;20019;-74
2021/03/25 05:33:02;;;;;;;23.58;9.77;;;2.80;99.90;;;;;;4972158;28;20035;-75
2021/03/25 05:35:35;;;;;;;28.73;9.90;;;2.80;99.90;;;;;;4995373;28;20411;-76
2021/03/25 05:38:02;;;;;;;21.42;9.15;;;2.80;99.90;;;;;;4996973;28;20030;-75
2021/03/25 05:40:32;;;;;;;19.92;9.32;;;2.90;99.90;;;;;;4995847;28;20041;-75
2021/03/25 05:43:29;;;;;;;25.15;9.80;;;2.90;99.90;;;;;;4999961;28;20175;-76
2021/03/25 05:46:01;;;;;;;22.50;9.88;;;3.00;99.90;;;;;;4995315;28;20120;-76
2021/03/25 05:48:48;;;;;;;26.33;9.73;;;3.00;99.90;;;;;;4998628;28;20030;-76
2021/03/25 05:51:29;;;;;;;18.98;8.73;;;3.00;99.90;;;;;;4998954;28;20037;-74
2021/03/25 05:53:57;;;;;;;28.17;10.38;;;3.00;99.90;;;;;;4971837;28;20042;-76
2021/03/25 05:56:46;;;;;;;27.40;11.07;;;3.10;99.90;;;;;;4997651;28;20044;-76
2021/03/25 05:59:17;;;;;;;28.23;9.68;;;3.10;99.90;;;;;;4996654;28;20129;-76
2021/03/25 06:01:51;;;;;;;20.60;9.43;;;3.20;99.90;;;;;;4997141;28;20772;-76
2021/03/25 06:04:37;;;;;;;23.17;9.60;;;3.20;99.90;;;;;;4997051;28;20026;-76
2021/03/25 06:07:15;;;;;;;28.63;10.23;;;3.30;99.90;;;;;;5001913;28;20042;-73
2021/03/25 06:10:18;;;;;;;25.15;10.10;;;3.40;99.90;;;;;;4995091;28;20026;-77
2021/03/25 06:13:05;;;;;;;27.38;9.82;;;3.50;99.90;;;;;;4988147;28;20503;-76
2021/03/25 06:16:03;;;;;;;26.33;9.90;;;3.60;99.90;;;;;;4994849;28;20034;-73
2021/03/25 06:18:38;;;;;;;29.23;8.75;;;3.80;99.90;;;;;;4990212;28;20042;-76
2021/03/25 06:21:34;;;;;;;20.45;8.98;;;3.90;99.90;;;;;;4991565;28;20034;-76
2021/03/25 06:24:23;;;;;;;29.70;10.15;;;4.00;99.90;;;;;;4990826;28;20037;-74
2021/03/25 06:27:12;;;;;;;32.03;10.73;;;4.20;99.90;;;;;;4986050;28;20034;-74
2021/03/25 06:29:48;;;;;;;25.02;10.02;;;4.40;99.90;;;;;;4984897;28;20392;-74
2021/03/25 06:32:53;;;;;;;23.73;9.07;;;4.50;99.90;;;;;;4987668;28;20089;-76
2021/03/25 06:35:23;;;;;;;27.73;10.60;;;4.70;99.90;;;;;;4992169;28;20035;-76
2021/03/25 06:38:10;;;;;;;22.98;10.88;;;4.90;99.90;;;;;;4988573;28;20116;-76
2021/03/25 06:40:44;;;;;;;21.27;9.27;;;5.00;99.90;;;;;;4996748;28;20038;-73
2021/03/25 06:43:31;;;;;;;24.13;9.88;;;5.20;99.90;;;;;;4989143;28;20380;-73
2021/03/25 06:46:07;;;;;;;21.00;9.98;;;5.40;99.90;;;;;;4990613;28;20041;-74
2021/03/25 06:48:49;;;;;;;32.65;10.63;;;5.60;99.90;;;;;;4991697;28;20038;-74
2021/03/25 06:51:29;;;;;;;29.90;9.68;;;5.70;99.90;;;;;;5010699;28;20038;-75
2021/03/25 06:54:12;;;;;;;30.98;9.07;;;5.90;99.90;;;;;;4993763;28;20117;-72
2021/03/25 06:56:44;;;;;;;25.30;9.65;;;6.10;99.90;;;;;;4993053;28;20042;-75
2021/03/25 06:59:24;;;;;;;37.83;10.18;;;6.40;99.90;;;;;;4995687;28;20064;-72
2021/03/25 07:01:54;;;;;;;26.52;10.02;;;6.60;99.90;;;;;;4992407;28;20033;-74
2021/03/25 07:04:26;;;;;;;29.90;9.73;;;6.90;99.90;;;;;;4990730;28;20041;-74
2021/03/25 07:06:56;;;;;;;22.77;8.57;;;7.30;99.90;;;;;;4987899;28;20038;-73
2021/03/25 07:09:28;;;;;;;26.70;9.15;;;7.70;99.90;;;;;;4992624;28;20499;-75
2021/03/25 07:11:55;;;;;;;25.45;8.63;;;8.00;99.90;;;;;;4987131;28;20042;-75
2021/03/25 07:14:37;;;;;;;21.83;9.48;;;8.20;99.90;;;;;;4987304;28;20038;-75
2021/03/25 07:17:04;;;;;;;27.08;9.52;;;8.50;97.80;;;;;;4989479;28;20129;-72
2021/03/25 07:19:34;;;;;;;23.05;8.73;;;8.70;96.00;;;;;;4990303;28;20045;-73
2021/03/25 07:22:19;;;;;;;20.23;8.68;;;8.80;93.30;;;;;;4994571;28;20054;-73
2021/03/25 07:24:45;;;;;;;30.27;9.77;;;9.00;92.00;;;;;;4992194;28;20026;-76
2021/03/25 07:27:22;;;;;;;27.67;8.70;;;9.50;91.40;;;;;;4985572;28;20050;-72
2021/03/25 07:30:10;;;;;;;22.10;7.95;;;9.50;88.50;;;;;;4986384;28;20045;-76
2021/03/25 07:33:16;;;;;;;23.33;7.53;;;9.70;85.90;;;;;;4989339;28;20357;-74
2021/03/25 07:35:45;;;;;;;20.60;9.27;;;9.80;84.40;;;;;;5016469;28;20341;-74
2021/03/25 07:38:30;;;;;;;25.85;7.97;;;9.80;83.80;;;;;;4991246;28;20130;-74
2021/03/25 07:41:01;;;;;;;;;;;10.00;82.60;;;;;;4989913;28;20037;-74
2021/03/25 07:43:29;;;;;;;23.02;8.35;;;9.90;83.50;;;;;;4992306;28;20298;-73
2021/03/25 07:46:19;;;;;;;21.52;8.73;;;10.10;81.80;;;;;;4992542;28;20033;-75
2021/03/25 07:48:58;;;;;;;26.95;8.68;;;10.20;80.20;;;;;;4990811;28;20136;-77
2021/03/25 07:51:24;;;;;;;22.67;8.13;;;10.50;78.70;;;;;;4987419;28;20110;-76
2021/03/25 07:54:12;;;;;;;27.02;9.25;;;10.70;77.10;;;;;;4986893;28;20129;-73
2021/03/25 07:56:52;;;;;;;17.23;8.60;;;11.10;75.70;;;;;;4992161;28;21143;-75
2021/03/25 07:59:30;;;;;;;19.73;8.77;;;11.40;73.20;;;;;;4993462;28;20110;-74
2021/03/25 08:01:55;;;;;;;25.85;8.00;;;11.50;70.70;;;;;;4990948;28;20138;-74
2021/03/25 08:04:28;;;;;;;23.92;8.80;;;11.40;70.30;;;;;;4990726;28;20150;-74
2021/03/25 08:07:08;;;;;;;29.65;9.10;;;11.40;69.60;;;;;;4991685;28;20106;-73
2021/03/25 08:09:51;;;;;;;30.40;8.52;;;11.50;68.90;;;;;;4992513;28;20058;-73
2021/03/25 08:12:22;;;;;;;27.90;8.20;;;11.60;68.00;;;;;;4985961;28;20470;-74
2021/03/25 08:14:48;;;;;;;29.20;8.38;;;12.00;67.90;;;;;;4985711;28;20030;-74
2021/03/25 08:17:26;;;;;;;16.42;7.80;;;12.40;66.00;;;;;;4988549;28;20125;-74
2021/03/25 08:19:56;;;;;;;17.25;7.00;;;13.00;62.90;;;;;;4989730;28;20046;-73
2021/03/25 08:22:44;;;;;;;24.88;8.48;;;13.80;59.50;;;;;;4987272;28;20038;-73
2021/03/25 08:25:09;;;;;;;27.40;7.88;;;13.80;57.00;;;;;;4986810;28;20039;-75
2021/03/25 08:27:58;;;;;;;21.48;8.52;;;13.90;55.60;;;;;;4984128;28;20537;-74
2021/03/25 08:30:36;;;;;;;27.13;8.15;;;13.70;55.40;;;;;;5000346;28;22254;-74
2021/03/25 08:33:37;;;;;;;20.90;9.02;;;13.70;54.90;;;;;;4988153;28;20046;-76
2021/03/25 08:36:31;;;;;;;21.75;8.35;;;13.60;55.80;;;;;;4983237;28;20058;-74
2021/03/25 08:39:13;;;;;;;34.05;9.93;;;13.40;55.40;;;;;;4985129;28;20050;-73
2021/03/25 08:41:41;;;;;;;24.95;7.70;;;13.80;56.00;;;;;;4984846;28;20070;-73
2021/03/25 08:44:14;;;;;;;31.40;8.68;;;14.00;52.80;;;;;;4985579;28;20031;-74
2021/03/25 08:46:52;;;;;;;28.67;9.02;;;14.20;52.00;;;;;;4985544;28;20570;-74
2021/03/25 08:49:35;;;;;;;25.70;8.07;;;14.20;52.50;;;;;;4988769;28;20499;-76
2021/03/25 08:52:05;;;;;;;32.80;8.63;;;14.60;52.50;;;;;;4986797;28;20042;-76
2021/03/25 08:54:46;;;;;;;23.65;8.07;;;14.80;51.30;;;;;;4985848;28;20527;-73
2021/03/25 08:57:34;;;;;;;20.23;7.57;;;14.80;49.20;;;;;;4985473;28;20053;-73
2021/03/25 09:00:06;;;;;;;25.02;9.13;;;15.10;48.80;;;;;;4985020;28;20041;-73
2021/03/25 09:02:36;;;;;;;36.58;9.38;;;15.40;48.40;;;;;;4987476;28;20034;-73
2021/03/25 09:05:24;;;;;;;25.58;9.18;;;15.60;47.70;;;;;;4997443;28;20041;-73
2021/03/25 09:07:50;;;;;;;25.40;8.13;;;16.00;46.20;;;;;;4985961;28;20505;-74
2021/03/25 09:10:25;;;;;;;24.83;8.27;;;16.10;43.30;;;;;;4987858;28;20053;-74
2021/03/25 09:12:52;;;;;;;18.92;7.65;;;16.30;43.20;;;;;;4989968;28;20466;-75
2021/03/25 09:15:17;;;;;;;23.40;8.75;;;16.40;42.60;;;;;;4990808;28;20508;-76
2021/03/25 09:18:03;;;;;;;27.05;7.90;;;17.00;41.50;;;;;;4988998;28;20125;-76
2021/03/25 09:20:32;;;;;;;25.52;8.38;;;17.50;40.00;;;;;;4986103;28;20085;-75
2021/03/25 09:23:19;;;;;;;28.45;8.90;;;18.20;36.20;;;;;;4987761;28;20038;-75
2021/03/25 09:25:45;;;;;;;22.00;7.78;;;18.50;34.50;;;;;;4993595;28;20057;-75
2021/03/25 09:28:20;;;;;;;22.55;8.52;;;19.10;31.80;;;;;;4993144;28;20057;-74
2021/03/25 09:31:10;;;;;;;26.10;8.02;;;20.00;30.70;;;;;;4990826;28;20093;-75
2021/03/25 09:33:42;;;;;;;18.23;8.55;;;20.10;27.70;;;;;;4991602;28;20038;-74
2021/03/25 09:36:17;;;;;;;25.38;8.05;;;20.50;27.00;;;;;;4987738;28;20034;-75
2021/03/25 09:38:46;;;;;;;21.17;9.02;;;20.80;25.70;;;;;;4992788;28;20117;-74
2021/03/25 09:41:41;;;;;;;21.75;7.60;;;20.50;24.50;;;;;;4990146;28;20038;-75
2021/03/25 09:44:10;;;;;;;26.35;7.07;;;20.40;24.40;;;;;;4987599;28;20399;-76
2021/03/25 09:46:55;;;;;;;20.45;7.20;;;20.70;24.40;;;;;;4989754;28;20119;-74
2021/03/25 09:49:39;;;;;;;16.75;7.25;;;20.50;24.30;;;;;;4987661;28;20589;-74
2021/03/25 09:52:07;;;;;;;15.30;7.25;;;20.50;24.20;;;;;;4992696;28;20056;-73
2021/03/25 09:54:36;;;;;;;20.20;7.60;;;20.20;25.20;;;;;;4992900;28;20479;-74
2021/03/25 09:57:26;;;;;;;22.02;7.43;;;20.20;24.10;;;;;;4986539;28;20044;-74
2021/03/25 09:59:54;;;;;;;18.42;7.78;;;20.80;23.50;;;;;;4988419;28;20129;-74
2021/03/25 10:02:43;;;;;;;23.80;7.80;;;20.40;23.10;;;;;;4995934;28;20041;-74
2021/03/25 10:05:24;;;;;;;20.67;8.20;;;20.80;23.30;;;;;;4990076;28;20502;-74
2021/03/25 10:07:52;;;;;;;18.02;7.68;;;20.60;22.70;;;;;;4986495;28;20053;-74
2021/03/25 10:10:35;;;;;;;15.57;6.93;;;21.00;23.10;;;;;;4990979;28;20072;-74
2021/03/25 10:13:00;;;;;;;22.50;7.70;;;21.00;22.20;;;;;;4984372;28;20096;-74
2021/03/25 10:15:29;;;;;;;32.30;7.85;;;22.00;21.60;;;;;;4986767;28;20026;-74
2021/03/25 10:17:55;;;;;;;16.83;7.22;;;22.00;21.10;;;;;;4984372;28;20053;-74
2021/03/25 10:20:59;;;;;;;20.50;8.05;;;22.70;21.00;;;;;;4988756;28;20478;-76
2021/03/25 10:23:31;;;;;;;25.50;7.72;;;23.10;19.90;;;;;;4998026;28;20038;-74
2021/03/25 10:26:10;;;;;;;18.17;7.43;;;23.10;17.90;;;;;;4989737;28;20038;-74
2021/03/25 10:28:41;;;;;;;24.38;7.68;;;22.90;18.80;;;;;;4989271;28;20041;-74
2021/03/25 10:31:27;;;;;;;17.40;7.95;;;23.80;17.70;;;;;;4989184;28;20038;-74
2021/03/25 10:34:00;;;;;;;25.52;8.02;;;23.50;17.90;;;;;;4992444;28;20134;-74
2021/03/25 10:36:37;;;;;;;40.38;11.20;;;22.40;18.70;;;;;;4985930;28;20038;-74
2021/03/25 10:39:05;;;;;;;42.40;7.80;;;22.50;19.10;;;;;;4989225;28;20287;-74
2021/03/25 10:41:37;;;;;;;16.48;7.60;;;22.60;18.20;;;;;;4985436;28;20042;-74
2021/03/25 10:44:23;;;;;;;16.83;6.93;;;22.70;18.30;;;;;;4985026;28;20034;-73
2021/03/25 10:46:48;;;;;;;15.20;6.50;;;23.00;18.00;;;;;;4997774;28;20042;-75
2021/03/25 10:49:18;;;;;;;24.00;7.63;;;22.80;17.40;;;;;;4985023;28;20048;-76
2021/03/25 10:51:46;;;;;;;16.50;6.85;;;22.60;18.20;;;;;;4986235;28;20053;-74
2021/03/25 10:54:38;;;;;;;16.73;7.03;;;23.10;18.30;;;;;;4985567;28;20944;-74
2021/03/25 10:57:26;;;;;;;19.02;6.40;;;23.80;17.10;;;;;;4985446;28;20050;-74
2021/03/25 11:00:03;;;;;;;17.85;7.18;;;23.30;17.10;;;;;;4983813;28;20120;-74
2021/03/25 11:02:37;;;;;;;13.95;6.90;;;23.90;16.80;;;;;;4996322;28;20054;-75
2021/03/25 11:05:03;;;;;;;27.95;6.38;;;24.00;16.00;;;;;;4986994;28;20535;-74
2021/03/25 11:07:28;;;;;;;24.60;7.03;;;24.00;16.20;;;;;;4986504;28;20037;-74
2021/03/25 11:09:59;;;;;;;13.75;6.15;;;24.70;15.40;;;;;;4986544;28;20058;-74
2021/03/25 11:12:28;;;;;;;20.20;6.65;;;24.60;14.50;;;;;;4986732;28;20043;-75
2021/03/25 11:15:29;;;;;;;21.88;6.90;;;24.60;14.60;;;;;;4986393;28;20042;-75
2021/03/25 11:17:55;;;;;;;12.63;5.75;;;24.30;14.70;;;;;;4988352;28;20597;-75
2021/03/25 11:20:24;;;;;;;20.52;5.60;;;24.20;13.10;;;;;;4988134;28;20072;-74
2021/03/25 11:22:51;;;;;;;18.48;7.35;;;24.80;14.30;;;;;;4987458;28;20069;-75
2021/03/25 11:25:29;;;;;;;16.55;5.78;;;25.50;13.70;;;;;;4991319;28;20048;-74
2021/03/25 11:28:07;;;;;;;15.77;6.63;;;24.60;13.00;;;;;;4988301;28;20056;-74
2021/03/25 11:30:36;;;;;;;23.85;7.03;;;24.00;13.50;;;;;;4986908;28;20047;-76
2021/03/25 11:33:19;;;;;;;16.13;6.50;;;24.10;13.30;;;;;;4994095;28;20121;-76
2021/03/25 11:35:45;;;;;;;19.55;6.15;;;24.80;13.10;;;;;;5007016;28;20045;-75
2021/03/25 11:38:25;;;;;;;18.67;6.95;;;24.80;16.30;;;;;;4992351;28;20034;-76
2021/03/25 11:41:01;;;;;;;18.13;6.18;;;24.20;13.70;;;;;;4989343;28;20046;-75
2021/03/25 11:43:52;;;;;;;17.98;6.72;;;24.60;13.30;;;;;;4987832;28;20112;-74
2021/03/25 11:46:37;;;;;;;14.90;7.20;;;24.60;14.70;;;;;;5004429;28;20042;-75
2021/03/25 11:49:10;;;;;;;21.45;6.38;;;24.90;14.40;;;;;;4989088;28;20030;-75
2021/03/25 11:51:43;;;;;;;19.90;6.40;;;25.00;14.00;;;;;;4989177;28;20089;-75
2021/03/25 11:54:20;;;;;;;17.40;5.72;;;25.00;14.20;;;;;;4991777;28;20088;-75
2021/03/25 11:56:52;;;;;;;13.80;6.90;;;25.80;13.90;;;;;;4987786;28;20037;-75
2021/03/25 11:59:17;;;;;;;17.60;7.38;;;25.30;13.10;;;;;;4995617;28;20046;-76
2021/03/25 12:01:43;;;;;;;18.70;7.82;;;24.20;13.60;;;;;;4991951;28;20072;-74
2021/03/25 12:04:15;;;;;;;17.83;6.65;;;25.40;13.60;;;;;;4991495;28;20415;-76
2021/03/25 12:07:01;;;;;;;20.52;7.45;;;25.60;13.40;;;;;;4989072;28;22334;-73
2021/03/25 12:09:28;;;;;;;18.90;7.45;;;26.10;12.70;;;;;;4988544;28;20659;-74
2021/03/25 12:11:54;;;;;;;16.95;8.00;;;26.30;12.90;;;;;;4993007;28;20041;-74
2021/03/25 12:14:22;;;;;;;17.23;7.75;;;26.10;13.40;;;;;;5000954;28;20091;-73
2021/03/25 12:17:10;;;;;;;20.35;7.80;;;25.20;14.20;;;;;;4992167;28;20045;-74
2021/03/25 12:19:36;;;;;;;13.73;6.95;;;25.20;14.30;;;;;;4989576;28;20038;-75
2021/03/25 12:22:01;;;;;;;22.02;7.85;;;24.80;14.40;;;;;;4989318;28;20044;-74
2021/03/25 12:24:27;;;;;;;15.77;7.70;;;23.80;15.20;;;;;;4991799;28;20054;-73
2021/03/25 12:26:52;;;;;;;19.95;8.63;;;23.00;16.10;;;;;;4991780;28;20057;-74
2021/03/25 12:29:18;;;;;;;17.13;7.88;;;22.30;17.30;;;;;;4993386;28;20042;-74
2021/03/25 12:31:44;;;;;;;20.77;8.18;;;21.80;18.80;;;;;;4992870;28;20096;-75
2021/03/25 12:34:13;;;;;;;18.85;7.85;;;21.30;20.10;;;;;;4993602;28;20034;-73
2021/03/25 12:36:38;;;;;;;19.02;8.48;;;20.60;20.10;;;;;;4993218;28;20059;-74
2021/03/25 12:39:07;;;;;;;19.17;8.43;;;19.50;20.90;;;;;;4991141;28;20149;-74
2021/03/25 12:41:35;;;;;;;23.13;9.00;;;19.20;22.70;;;;;;4992458;28;20030;-75
2021/03/25 12:44:02;;;;;;;27.00;9.63;;;19.00;22.90;;;;;;4994076;28;20030;-75
2021/03/25 12:46:28;;;;;;;21.45;8.65;;;18.70;23.50;;;;;;4992992;28;20222;-73
2021/03/25 12:48:54;;;;;;;25.85;9.13;;;18.70;23.70;;;;;;4990098;28;20507;-74
2021/03/25 12:51:20;;;;;;;18.52;8.35;;;18.40;24.10;;;;;;4992049;28;20122;-74
2021/03/25 12:53:49;;;;;;;25.40;7.78;;;18.40;24.60;;;;;;4992903;28;20176;-75
2021/03/25 12:56:20;;;;;;;15.18;7.43;;;18.40;25.10;;;;;;4996184;28;20522;-73
2021/03/25 12:58:46;;;;;;;17.92;7.30;;;18.00;25.20;;;;;;4991899;28;20259;-75
2021/03/25 13:01:15;;;;;;;18.65;7.15;;;17.90;25.80;;;;;;4992682;28;20496;-74
2021/03/25 13:03:42;;;;;;;15.75;6.93;;;17.70;25.90;;;;;;4994190;28;20397;-75
2021/03/25 13:06:09;;;;;;;15.00;6.18;;;17.80;26.70;;;;;;4993319;28;20034;-74
2021/03/25 13:08:35;;;;;;;17.67;6.30;;;17.50;26.00;;;;;;4992313;28;20156;-74
2021/03/25 13:11:00;;;;;;;21.67;7.03;;;17.80;26.20;;;;;;4997583;28;20105;-73
2021/03/25 13:13:26;;;;;;;24.70;6.68;;;17.90;25.40;;;;;;4992267;28;20574;-74
2021/03/25 13:15:52;;;;;;;18.33;6.57;;;18.30;26.00;;;;;;4993261;28;20034;-75